sensor_id;sensor_type;location;lat;lon;timestamp;P1;durP1;ratioP1;P2;durP2;ratioP2
39788;SDS011;25478;42.626;23.320;2023-07-16T00:01:57;21.25;;;15.40;;
39788;SDS011;25478;42.626;23.320;2023-07-16T00:04:23;19.65;;;14.85;;
39788;SDS011;25478;42.626;23.320;2023-07-16T00:06:48;21.02;;;15.27;;
39788;SDS011;25478;42.626;23.320;2023-07-16T00:09:14;19.15;;;15.27;;
39788;SDS011;25478;42.626;23.320;2023-07-16T00:11:40;21.67;;;15.43;;
39788;SDS011;25478;42.626;23.320;2023-07-16T00:14:05;21.33;;;15.77;;
39788;SDS011;25478;42.626;23.320;2023-07-16T00:16:31;20.83;;;15.52;;
39788;SDS011;25478;42.626;23.320;2023-07-16T00:18:56;20.42;;;16.50;;
39788;SDS011;25478;42.626;23.320;2023-07-16T00:21:22;20.58;;;16.40;;
39788;SDS011;25478;42.626;23.320;2023-07-16T00:23:48;19.95;;;15.98;;
39788;SDS011;25478;42.626;23.320;2023-07-16T00:26:14;20.10;;;15.20;;
39788;SDS011;25478;42.626;23.320;2023-07-16T00:28:39;20.55;;;15.30;;
39788;SDS011;25478;42.626;23.320;2023-07-16T00:31:05;22.75;;;16.27;;
39788;SDS011;25478;42.626;23.320;2023-07-16T00:33:30;21.33;;;15.80;;
39788;SDS011;25478;42.626;23.320;2023-07-16T00:35:56;19.08;;;15.30;;
39788;SDS011;25478;42.626;23.320;2023-07-16T00:38:22;19.90;;;15.60;;
39788;SDS011;25478;42.626;23.320;2023-07-16T00:40:49;20.00;;;15.30;;
39788;SDS011;25478;42.626;23.320;2023-07-16T00:43:14;20.88;;;15.27;;
39788;SDS011;25478;42.626;23.320;2023-07-16T00:45:40;20.73;;;15.60;;
39788;SDS011;25478;42.626;23.320;2023-07-16T00:48:07;23.10;;;16.23;;
39788;SDS011;25478;42.626;23.320;2023-07-16T00:50:34;21.05;;;15.48;;
39788;SDS011;25478;42.626;23.320;2023-07-16T00:53:07;23.17;;;16.17;;
39788;SDS011;25478;42.626;23.320;2023-07-16T00:55:33;20.73;;;16.90;;
39788;SDS011;25478;42.626;23.320;2023-07-16T00:58:05;21.20;;;15.63;;
39788;SDS011;25478;42.626;23.320;2023-07-16T01:00:32;22.13;;;16.10;;
39788;SDS011;25478;42.626;23.320;2023-07-16T01:03:00;21.15;;;16.33;;
39788;SDS011;25478;42.626;23.320;2023-07-16T01:05:28;22.58;;;16.92;;
39788;SDS011;25478;42.626;23.320;2023-07-16T01:08:00;22.10;;;15.75;;
39788;SDS011;25478;42.626;23.320;2023-07-16T01:10:28;19.77;;;15.80;;
39788;SDS011;25478;42.626;23.320;2023-07-16T01:12:54;20.70;;;16.17;;
39788;SDS011;25478;42.626;23.320;2023-07-16T01:15:21;20.60;;;15.85;;
39788;SDS011;25478;42.626;23.320;2023-07-16T01:17:46;19.02;;;15.50;;
39788;SDS011;25478;42.626;23.320;2023-07-16T01:20:12;23.75;;;16.58;;
39788;SDS011;25478;42.626;23.320;2023-07-16T01:25:36;22.60;;;15.88;;
39788;SDS011;25478;42.626;23.320;2023-07-16T01:31:10;20.90;;;15.88;;
39788;SDS011;25478;42.626;23.320;2023-07-16T01:33:38;20.55;;;16.25;;
39788;SDS011;25478;42.626;23.320;2023-07-16T01:36:07;22.17;;;15.48;;
39788;SDS011;25478;42.626;23.320;2023-07-16T01:38:33;22.02;;;15.45;;
39788;SDS011;25478;42.626;23.320;2023-07-16T01:41:02;21.85;;;15.98;;
39788;SDS011;25478;42.626;23.320;2023-07-16T01:43:28;23.85;;;15.95;;
39788;SDS011;25478;42.626;23.320;2023-07-16T01:45:53;20.60;;;15.82;;
39788;SDS011;25478;42.626;23.320;2023-07-16T01:50:57;22.67;;;15.55;;
39788;SDS011;25478;42.626;23.320;2023-07-16T01:53:23;26.77;;;15.95;;
39788;SDS011;25478;42.626;23.320;2023-07-16T01:55:49;21.60;;;16.17;;
39788;SDS011;25478;42.626;23.320;2023-07-16T01:58:14;20.50;;;16.15;;
39788;SDS011;25478;42.626;23.320;2023-07-16T02:00:39;23.48;;;15.93;;
39788;SDS011;25478;42.626;23.320;2023-07-16T02:03:05;21.73;;;15.23;;
39788;SDS011;25478;42.626;23.320;2023-07-16T02:05:31;21.02;;;16.30;;
39788;SDS011;25478;42.626;23.320;2023-07-16T02:07:56;21.40;;;15.90;;
39788;SDS011;25478;42.626;23.320;2023-07-16T02:10:22;21.90;;;15.70;;
39788;SDS011;25478;42.626;23.320;2023-07-16T02:12:47;21.83;;;16.45;;
39788;SDS011;25478;42.626;23.320;2023-07-16T02:15:13;23.45;;;17.00;;
39788;SDS011;25478;42.626;23.320;2023-07-16T02:17:41;25.75;;;16.80;;
39788;SDS011;25478;42.626;23.320;2023-07-16T02:20:08;21.92;;;15.75;;
39788;SDS011;25478;42.626;23.320;2023-07-16T02:22:36;22.67;;;16.63;;
39788;SDS011;25478;42.626;23.320;2023-07-16T02:25:01;21.00;;;16.13;;
39788;SDS011;25478;42.626;23.320;2023-07-16T02:27:28;23.52;;;16.20;;
39788;SDS011;25478;42.626;23.320;2023-07-16T02:29:53;23.25;;;16.65;;
39788;SDS011;25478;42.626;23.320;2023-07-16T02:32:19;23.55;;;15.63;;
39788;SDS011;25478;42.626;23.320;2023-07-16T02:34:45;22.25;;;16.13;;
39788;SDS011;25478;42.626;23.320;2023-07-16T02:37:10;22.00;;;16.42;;
39788;SDS011;25478;42.626;23.320;2023-07-16T02:39:36;21.08;;;15.65;;
39788;SDS011;25478;42.626;23.320;2023-07-16T02:42:03;22.48;;;17.10;;
39788;SDS011;25478;42.626;23.320;2023-07-16T02:44:29;22.38;;;15.85;;
39788;SDS011;25478;42.626;23.320;2023-07-16T02:46:54;23.95;;;16.27;;
39788;SDS011;25478;42.626;23.320;2023-07-16T02:49:20;19.88;;;15.70;;
39788;SDS011;25478;42.626;23.320;2023-07-16T02:51:45;20.95;;;15.60;;
39788;SDS011;25478;42.626;23.320;2023-07-16T02:54:11;22.20;;;17.30;;
39788;SDS011;25478;42.626;23.320;2023-07-16T02:56:37;24.13;;;16.52;;
39788;SDS011;25478;42.626;23.320;2023-07-16T02:59:02;21.50;;;16.20;;
39788;SDS011;25478;42.626;23.320;2023-07-16T03:01:28;23.98;;;17.63;;
39788;SDS011;25478;42.626;23.320;2023-07-16T03:03:53;21.00;;;16.38;;
39788;SDS011;25478;42.626;23.320;2023-07-16T03:06:19;21.75;;;16.90;;
39788;SDS011;25478;42.626;23.320;2023-07-16T03:08:44;22.65;;;16.40;;
39788;SDS011;25478;42.626;23.320;2023-07-16T03:11:10;23.90;;;17.10;;
39788;SDS011;25478;42.626;23.320;2023-07-16T03:13:36;24.38;;;16.27;;
39788;SDS011;25478;42.626;23.320;2023-07-16T03:16:02;21.55;;;17.55;;
39788;SDS011;25478;42.626;23.320;2023-07-16T03:18:28;23.42;;;17.25;;
39788;SDS011;25478;42.626;23.320;2023-07-16T03:20:54;23.20;;;16.98;;
39788;SDS011;25478;42.626;23.320;2023-07-16T03:23:20;23.63;;;17.48;;
39788;SDS011;25478;42.626;23.320;2023-07-16T03:25:45;24.02;;;17.73;;
39788;SDS011;25478;42.626;23.320;2023-07-16T03:28:11;24.08;;;17.45;;
39788;SDS011;25478;42.626;23.320;2023-07-16T03:30:36;21.08;;;17.02;;
39788;SDS011;25478;42.626;23.320;2023-07-16T03:33:03;24.92;;;17.20;;
39788;SDS011;25478;42.626;23.320;2023-07-16T03:35:30;24.00;;;17.00;;
39788;SDS011;25478;42.626;23.320;2023-07-16T03:37:55;26.02;;;17.35;;
39788;SDS011;25478;42.626;23.320;2023-07-16T03:40:24;24.70;;;17.85;;
39788;SDS011;25478;42.626;23.320;2023-07-16T03:42:51;28.73;;;18.15;;
39788;SDS011;25478;42.626;23.320;2023-07-16T03:45:17;24.17;;;17.38;;
39788;SDS011;25478;42.626;23.320;2023-07-16T03:47:43;24.10;;;16.98;;
39788;SDS011;25478;42.626;23.320;2023-07-16T03:50:08;22.80;;;17.77;;
39788;SDS011;25478;42.626;23.320;2023-07-16T03:52:34;24.95;;;17.90;;
39788;SDS011;25478;42.626;23.320;2023-07-16T03:55:00;22.05;;;17.17;;
39788;SDS011;25478;42.626;23.320;2023-07-16T03:57:27;22.52;;;17.00;;
39788;SDS011;25478;42.626;23.320;2023-07-16T03:59:55;24.98;;;17.60;;
39788;SDS011;25478;42.626;23.320;2023-07-16T04:02:21;22.65;;;17.08;;
39788;SDS011;25478;42.626;23.320;2023-07-16T04:04:46;23.00;;;17.35;;
39788;SDS011;25478;42.626;23.320;2023-07-16T04:07:12;21.10;;;17.30;;
39788;SDS011;25478;42.626;23.320;2023-07-16T04:09:38;22.02;;;16.92;;
39788;SDS011;25478;42.626;23.320;2023-07-16T04:12:04;21.83;;;16.17;;
39788;SDS011;25478;42.626;23.320;2023-07-16T04:14:31;21.63;;;16.83;;
39788;SDS011;25478;42.626;23.320;2023-07-16T04:16:57;21.48;;;16.73;;
39788;SDS011;25478;42.626;23.320;2023-07-16T04:19:22;20.08;;;16.33;;
39788;SDS011;25478;42.626;23.320;2023-07-16T04:21:48;21.85;;;17.00;;
39788;SDS011;25478;42.626;23.320;2023-07-16T04:24:13;21.27;;;17.02;;
39788;SDS011;25478;42.626;23.320;2023-07-16T04:26:39;22.52;;;16.50;;
39788;SDS011;25478;42.626;23.320;2023-07-16T04:29:04;20.90;;;15.57;;
39788;SDS011;25478;42.626;23.320;2023-07-16T04:31:30;21.17;;;15.60;;
39788;SDS011;25478;42.626;23.320;2023-07-16T04:33:55;22.73;;;15.73;;
39788;SDS011;25478;42.626;23.320;2023-07-16T04:36:21;23.15;;;15.93;;
39788;SDS011;25478;42.626;23.320;2023-07-16T04:38:47;24.42;;;15.85;;
39788;SDS011;25478;42.626;23.320;2023-07-16T04:41:12;22.25;;;14.80;;
39788;SDS011;25478;42.626;23.320;2023-07-16T04:43:38;21.02;;;14.73;;
39788;SDS011;25478;42.626;23.320;2023-07-16T04:46:04;19.88;;;14.20;;
39788;SDS011;25478;42.626;23.320;2023-07-16T04:48:29;17.05;;;13.38;;
39788;SDS011;25478;42.626;23.320;2023-07-16T04:50:55;18.33;;;13.05;;
39788;SDS011;25478;42.626;23.320;2023-07-16T04:53:20;18.42;;;13.13;;
39788;SDS011;25478;42.626;23.320;2023-07-16T04:55:47;16.10;;;12.82;;
39788;SDS011;25478;42.626;23.320;2023-07-16T04:58:12;17.88;;;12.82;;
39788;SDS011;25478;42.626;23.320;2023-07-16T05:00:38;17.10;;;12.00;;
39788;SDS011;25478;42.626;23.320;2023-07-16T05:03:03;18.70;;;12.05;;
39788;SDS011;25478;42.626;23.320;2023-07-16T05:05:29;14.95;;;10.98;;
39788;SDS011;25478;42.626;23.320;2023-07-16T05:07:54;15.43;;;11.68;;
39788;SDS011;25478;42.626;23.320;2023-07-16T05:10:20;17.73;;;12.93;;
39788;SDS011;25478;42.626;23.320;2023-07-16T05:12:45;20.10;;;12.57;;
39788;SDS011;25478;42.626;23.320;2023-07-16T05:15:11;17.98;;;13.18;;
39788;SDS011;25478;42.626;23.320;2023-07-16T05:17:36;18.02;;;11.20;;
39788;SDS011;25478;42.626;23.320;2023-07-16T05:20:02;12.05;;;10.25;;
39788;SDS011;25478;42.626;23.320;2023-07-16T05:22:29;16.70;;;10.63;;
39788;SDS011;25478;42.626;23.320;2023-07-16T05:24:55;14.27;;;10.98;;
39788;SDS011;25478;42.626;23.320;2023-07-16T05:27:20;11.93;;;9.60;;
39788;SDS011;25478;42.626;23.320;2023-07-16T05:29:46;13.15;;;9.57;;
39788;SDS011;25478;42.626;23.320;2023-07-16T05:32:13;14.25;;;9.70;;
39788;SDS011;25478;42.626;23.320;2023-07-16T05:34:38;14.85;;;9.60;;
39788;SDS011;25478;42.626;23.320;2023-07-16T05:37:04;12.50;;;9.50;;
39788;SDS011;25478;42.626;23.320;2023-07-16T05:39:29;15.07;;;9.88;;
39788;SDS011;25478;42.626;23.320;2023-07-16T05:41:55;17.05;;;12.35;;
39788;SDS011;25478;42.626;23.320;2023-07-16T05:44:20;18.52;;;13.68;;
39788;SDS011;25478;42.626;23.320;2023-07-16T05:46:46;16.48;;;11.77;;
39788;SDS011;25478;42.626;23.320;2023-07-16T05:49:12;16.83;;;12.30;;
39788;SDS011;25478;42.626;23.320;2023-07-16T05:51:37;13.68;;;11.05;;
39788;SDS011;25478;42.626;23.320;2023-07-16T05:54:03;14.88;;;11.38;;
39788;SDS011;25478;42.626;23.320;2023-07-16T05:56:28;11.77;;;9.23;;
39788;SDS011;25478;42.626;23.320;2023-07-16T05:58:54;15.77;;;10.52;;
39788;SDS011;25478;42.626;23.320;2023-07-16T06:01:19;12.30;;;8.88;;
39788;SDS011;25478;42.626;23.320;2023-07-16T06:03:45;11.32;;;8.35;;
39788;SDS011;25478;42.626;23.320;2023-07-16T06:06:10;9.68;;;7.13;;
39788;SDS011;25478;42.626;23.320;2023-07-16T06:08:36;9.77;;;6.88;;
39788;SDS011;25478;42.626;23.320;2023-07-16T06:11:01;6.78;;;6.00;;
39788;SDS011;25478;42.626;23.320;2023-07-16T06:13:27;7.80;;;6.25;;
39788;SDS011;25478;42.626;23.320;2023-07-16T06:15:52;9.52;;;6.68;;
39788;SDS011;25478;42.626;23.320;2023-07-16T06:18:18;9.40;;;5.93;;
39788;SDS011;25478;42.626;23.320;2023-07-16T06:20:46;10.27;;;5.78;;
39788;SDS011;25478;42.626;23.320;2023-07-16T06:23:12;8.95;;;6.03;;
39788;SDS011;25478;42.626;23.320;2023-07-16T06:25:38;8.38;;;5.85;;
39788;SDS011;25478;42.626;23.320;2023-07-16T06:28:05;7.55;;;5.55;;
39788;SDS011;25478;42.626;23.320;2023-07-16T06:30:31;7.53;;;5.80;;
39788;SDS011;25478;42.626;23.320;2023-07-16T06:32:58;9.52;;;6.10;;
39788;SDS011;25478;42.626;23.320;2023-07-16T06:35:23;9.68;;;6.45;;
39788;SDS011;25478;42.626;23.320;2023-07-16T06:37:49;11.32;;;6.40;;
39788;SDS011;25478;42.626;23.320;2023-07-16T06:40:15;9.60;;;6.60;;
39788;SDS011;25478;42.626;23.320;2023-07-16T06:42:40;9.63;;;6.35;;
39788;SDS011;25478;42.626;23.320;2023-07-16T06:45:06;7.85;;;6.53;;
39788;SDS011;25478;42.626;23.320;2023-07-16T06:47:32;9.77;;;6.78;;
39788;SDS011;25478;42.626;23.320;2023-07-16T06:49:57;7.85;;;6.28;;
39788;SDS011;25478;42.626;23.320;2023-07-16T06:52:23;10.57;;;6.50;;
39788;SDS011;25478;42.626;23.320;2023-07-16T06:54:53;8.80;;;6.80;;
39788;SDS011;25478;42.626;23.320;2023-07-16T06:57:19;8.32;;;6.00;;
39788;SDS011;25478;42.626;23.320;2023-07-16T06:59:45;8.77;;;6.22;;
39788;SDS011;25478;42.626;23.320;2023-07-16T07:02:11;9.45;;;6.15;;
39788;SDS011;25478;42.626;23.320;2023-07-16T07:04:37;9.50;;;7.03;;
39788;SDS011;25478;42.626;23.320;2023-07-16T07:07:03;7.93;;;6.43;;
39788;SDS011;25478;42.626;23.320;2023-07-16T07:09:29;11.50;;;6.40;;
39788;SDS011;25478;42.626;23.320;2023-07-16T07:11:54;8.85;;;6.32;;
39788;SDS011;25478;42.626;23.320;2023-07-16T07:14:19;9.90;;;6.57;;
39788;SDS011;25478;42.626;23.320;2023-07-16T07:16:45;10.45;;;6.75;;
39788;SDS011;25478;42.626;23.320;2023-07-16T07:19:10;8.07;;;6.35;;
39788;SDS011;25478;42.626;23.320;2023-07-16T07:21:36;9.77;;;6.57;;
39788;SDS011;25478;42.626;23.320;2023-07-16T07:24:01;8.18;;;7.28;;
39788;SDS011;25478;42.626;23.320;2023-07-16T07:26:27;8.80;;;6.78;;
39788;SDS011;25478;42.626;23.320;2023-07-16T07:28:53;13.45;;;7.18;;
39788;SDS011;25478;42.626;23.320;2023-07-16T07:31:18;10.48;;;6.63;;
39788;SDS011;25478;42.626;23.320;2023-07-16T07:33:44;8.25;;;6.15;;
39788;SDS011;25478;42.626;23.320;2023-07-16T07:36:09;15.75;;;7.60;;
39788;SDS011;25478;42.626;23.320;2023-07-16T07:38:34;10.10;;;6.70;;
39788;SDS011;25478;42.626;23.320;2023-07-16T07:41:00;8.80;;;6.70;;
39788;SDS011;25478;42.626;23.320;2023-07-16T07:43:26;11.45;;;7.10;;
39788;SDS011;25478;42.626;23.320;2023-07-16T07:45:52;15.65;;;7.20;;
39788;SDS011;25478;42.626;23.320;2023-07-16T07:48:17;10.30;;;6.60;;
39788;SDS011;25478;42.626;23.320;2023-07-16T07:50:43;10.35;;;7.35;;
39788;SDS011;25478;42.626;23.320;2023-07-16T07:53:09;11.45;;;7.45;;
39788;SDS011;25478;42.626;23.320;2023-07-16T07:55:34;11.27;;;8.10;;
39788;SDS011;25478;42.626;23.320;2023-07-16T07:58:02;10.10;;;6.82;;
39788;SDS011;25478;42.626;23.320;2023-07-16T08:00:28;11.60;;;7.93;;
39788;SDS011;25478;42.626;23.320;2023-07-16T08:02:53;10.63;;;7.28;;
39788;SDS011;25478;42.626;23.320;2023-07-16T08:05:19;9.48;;;7.60;;
39788;SDS011;25478;42.626;23.320;2023-07-16T08:07:44;13.52;;;8.25;;
39788;SDS011;25478;42.626;23.320;2023-07-16T08:10:10;10.07;;;8.15;;
39788;SDS011;25478;42.626;23.320;2023-07-16T08:12:35;11.25;;;7.88;;
39788;SDS011;25478;42.626;23.320;2023-07-16T08:15:01;12.50;;;9.15;;
39788;SDS011;25478;42.626;23.320;2023-07-16T08:17:26;12.73;;;8.52;;
39788;SDS011;25478;42.626;23.320;2023-07-16T08:19:52;12.90;;;8.27;;
39788;SDS011;25478;42.626;23.320;2023-07-16T08:22:17;10.73;;;8.88;;
39788;SDS011;25478;42.626;23.320;2023-07-16T08:24:43;11.15;;;9.10;;
39788;SDS011;25478;42.626;23.320;2023-07-16T08:27:10;13.10;;;9.05;;
39788;SDS011;25478;42.626;23.320;2023-07-16T08:29:36;12.30;;;8.90;;
39788;SDS011;25478;42.626;23.320;2023-07-16T08:32:01;11.73;;;9.02;;
39788;SDS011;25478;42.626;23.320;2023-07-16T08:34:28;13.00;;;9.25;;
39788;SDS011;25478;42.626;23.320;2023-07-16T08:36:53;12.65;;;9.57;;
39788;SDS011;25478;42.626;23.320;2023-07-16T08:39:19;15.38;;;9.32;;
39788;SDS011;25478;42.626;23.320;2023-07-16T08:41:45;13.10;;;9.57;;
39788;SDS011;25478;42.626;23.320;2023-07-16T08:44:12;12.77;;;9.95;;
39788;SDS011;25478;42.626;23.320;2023-07-16T08:46:38;14.57;;;10.32;;
39788;SDS011;25478;42.626;23.320;2023-07-16T08:49:05;14.30;;;9.88;;
39788;SDS011;25478;42.626;23.320;2023-07-16T08:51:32;13.02;;;9.00;;
39788;SDS011;25478;42.626;23.320;2023-07-16T08:53:59;13.25;;;9.13;;
39788;SDS011;25478;42.626;23.320;2023-07-16T08:56:26;13.98;;;9.63;;
39788;SDS011;25478;42.626;23.320;2023-07-16T08:58:52;11.25;;;9.35;;
39788;SDS011;25478;42.626;23.320;2023-07-16T09:01:21;12.98;;;10.15;;
39788;SDS011;25478;42.626;23.320;2023-07-16T09:03:47;11.73;;;9.55;;
39788;SDS011;25478;42.626;23.320;2023-07-16T09:06:12;13.30;;;9.43;;
39788;SDS011;25478;42.626;23.320;2023-07-16T09:08:38;13.15;;;9.65;;
39788;SDS011;25478;42.626;23.320;2023-07-16T09:11:03;13.63;;;9.38;;
39788;SDS011;25478;42.626;23.320;2023-07-16T09:13:29;13.90;;;9.95;;
39788;SDS011;25478;42.626;23.320;2023-07-16T09:15:56;12.88;;;9.20;;
39788;SDS011;25478;42.626;23.320;2023-07-16T09:18:23;11.65;;;9.52;;
39788;SDS011;25478;42.626;23.320;2023-07-16T09:20:57;13.32;;;9.75;;
39788;SDS011;25478;42.626;23.320;2023-07-16T09:23:24;12.05;;;9.43;;
39788;SDS011;25478;42.626;23.320;2023-07-16T09:25:51;14.15;;;10.15;;
39788;SDS011;25478;42.626;23.320;2023-07-16T09:28:18;13.85;;;9.35;;
39788;SDS011;25478;42.626;23.320;2023-07-16T09:30:44;14.70;;;9.95;;
39788;SDS011;25478;42.626;23.320;2023-07-16T09:33:13;15.40;;;10.45;;
39788;SDS011;25478;42.626;23.320;2023-07-16T09:35:40;12.02;;;9.75;;
39788;SDS011;25478;42.626;23.320;2023-07-16T09:38:06;16.20;;;10.07;;
39788;SDS011;25478;42.626;23.320;2023-07-16T09:40:33;17.27;;;9.90;;
39788;SDS011;25478;42.626;23.320;2023-07-16T09:42:59;11.77;;;9.18;;
39788;SDS011;25478;42.626;23.320;2023-07-16T09:45:27;15.75;;;9.65;;
39788;SDS011;25478;42.626;23.320;2023-07-16T09:47:53;11.00;;;9.27;;
39788;SDS011;25478;42.626;23.320;2023-07-16T09:50:18;11.65;;;9.40;;
39788;SDS011;25478;42.626;23.320;2023-07-16T09:52:45;12.27;;;9.52;;
39788;SDS011;25478;42.626;23.320;2023-07-16T09:55:12;11.90;;;9.50;;
39788;SDS011;25478;42.626;23.320;2023-07-16T09:57:41;17.67;;;10.90;;
39788;SDS011;25478;42.626;23.320;2023-07-16T10:00:10;14.35;;;8.40;;
39788;SDS011;25478;42.626;23.320;2023-07-16T10:02:41;10.85;;;9.50;;
39788;SDS011;25478;42.626;23.320;2023-07-16T10:07:50;14.43;;;9.73;;
39788;SDS011;25478;42.626;23.320;2023-07-16T10:10:17;15.38;;;10.52;;
39788;SDS011;25478;42.626;23.320;2023-07-16T10:12:54;13.07;;;10.57;;
39788;SDS011;25478;42.626;23.320;2023-07-16T10:15:27;12.05;;;9.43;;
39788;SDS011;25478;42.626;23.320;2023-07-16T10:17:53;12.45;;;9.90;;
39788;SDS011;25478;42.626;23.320;2023-07-16T10:20:27;13.38;;;9.48;;
39788;SDS011;25478;42.626;23.320;2023-07-16T10:22:54;16.98;;;10.50;;
39788;SDS011;25478;42.626;23.320;2023-07-16T10:27:45;13.23;;;9.55;;
39788;SDS011;25478;42.626;23.320;2023-07-16T10:30:12;14.30;;;10.13;;
39788;SDS011;25478;42.626;23.320;2023-07-16T10:32:38;12.32;;;9.98;;
39788;SDS011;25478;42.626;23.320;2023-07-16T10:35:05;14.63;;;9.90;;
39788;SDS011;25478;42.626;23.320;2023-07-16T10:37:31;13.43;;;9.80;;
39788;SDS011;25478;42.626;23.320;2023-07-16T10:39:58;11.02;;;9.38;;
39788;SDS011;25478;42.626;23.320;2023-07-16T10:42:25;12.18;;;9.55;;
39788;SDS011;25478;42.626;23.320;2023-07-16T10:44:52;12.70;;;9.48;;
39788;SDS011;25478;42.626;23.320;2023-07-16T10:47:20;17.45;;;10.80;;
39788;SDS011;25478;42.626;23.320;2023-07-16T10:49:48;17.35;;;10.40;;
39788;SDS011;25478;42.626;23.320;2023-07-16T10:52:14;16.63;;;10.35;;
39788;SDS011;25478;42.626;23.320;2023-07-16T10:54:40;14.75;;;10.25;;
39788;SDS011;25478;42.626;23.320;2023-07-16T10:57:06;14.85;;;10.52;;
39788;SDS011;25478;42.626;23.320;2023-07-16T10:59:31;13.50;;;10.38;;
39788;SDS011;25478;42.626;23.320;2023-07-16T11:01:57;11.50;;;9.68;;
39788;SDS011;25478;42.626;23.320;2023-07-16T11:04:23;13.88;;;9.88;;
39788;SDS011;25478;42.626;23.320;2023-07-16T11:06:52;11.73;;;9.25;;
39788;SDS011;25478;42.626;23.320;2023-07-16T11:09:17;16.63;;;10.10;;
39788;SDS011;25478;42.626;23.320;2023-07-16T11:11:43;12.63;;;10.10;;
39788;SDS011;25478;42.626;23.320;2023-07-16T11:14:08;13.63;;;10.07;;
39788;SDS011;25478;42.626;23.320;2023-07-16T11:16:35;13.00;;;9.52;;
39788;SDS011;25478;42.626;23.320;2023-07-16T11:19:04;14.32;;;9.98;;
39788;SDS011;25478;42.626;23.320;2023-07-16T11:21:31;12.07;;;9.95;;
39788;SDS011;25478;42.626;23.320;2023-07-16T11:24:14;15.80;;;9.75;;
39788;SDS011;25478;42.626;23.320;2023-07-16T11:26:49;15.05;;;10.48;;
39788;SDS011;25478;42.626;23.320;2023-07-16T11:29:17;16.00;;;9.05;;
39788;SDS011;25478;42.626;23.320;2023-07-16T11:31:43;13.07;;;10.00;;
39788;SDS011;25478;42.626;23.320;2023-07-16T11:34:15;13.63;;;10.38;;
39788;SDS011;25478;42.626;23.320;2023-07-16T11:36:41;12.63;;;10.10;;
39788;SDS011;25478;42.626;23.320;2023-07-16T11:39:07;14.82;;;10.25;;
39788;SDS011;25478;42.626;23.320;2023-07-16T11:41:32;13.70;;;9.75;;
39788;SDS011;25478;42.626;23.320;2023-07-16T11:44:01;13.73;;;10.27;;
39788;SDS011;25478;42.626;23.320;2023-07-16T11:46:32;14.15;;;10.00;;
39788;SDS011;25478;42.626;23.320;2023-07-16T11:48:59;14.73;;;9.73;;
39788;SDS011;25478;42.626;23.320;2023-07-16T11:51:25;14.18;;;9.38;;
39788;SDS011;25478;42.626;23.320;2023-07-16T11:53:51;13.55;;;9.75;;
39788;SDS011;25478;42.626;23.320;2023-07-16T11:56:17;13.82;;;9.85;;
39788;SDS011;25478;42.626;23.320;2023-07-16T11:58:42;13.70;;;9.68;;
39788;SDS011;25478;42.626;23.320;2023-07-16T12:01:08;12.90;;;9.55;;
39788;SDS011;25478;42.626;23.320;2023-07-16T12:03:34;14.35;;;10.05;;
39788;SDS011;25478;42.626;23.320;2023-07-16T12:05:59;11.77;;;9.63;;
39788;SDS011;25478;42.626;23.320;2023-07-16T12:08:25;13.68;;;10.05;;
39788;SDS011;25478;42.626;23.320;2023-07-16T12:10:51;11.13;;;8.98;;
39788;SDS011;25478;42.626;23.320;2023-07-16T12:13:17;15.55;;;10.30;;
39788;SDS011;25478;42.626;23.320;2023-07-16T12:15:42;16.23;;;9.70;;
39788;SDS011;25478;42.626;23.320;2023-07-16T12:18:08;13.23;;;9.25;;
39788;SDS011;25478;42.626;23.320;2023-07-16T12:20:34;13.40;;;9.20;;
39788;SDS011;25478;42.626;23.320;2023-07-16T12:23:01;14.98;;;9.93;;
39788;SDS011;25478;42.626;23.320;2023-07-16T12:25:28;14.77;;;9.75;;
39788;SDS011;25478;42.626;23.320;2023-07-16T12:27:53;12.82;;;9.55;;
39788;SDS011;25478;42.626;23.320;2023-07-16T12:30:19;14.05;;;9.68;;
39788;SDS011;25478;42.626;23.320;2023-07-16T12:32:45;13.20;;;9.38;;
39788;SDS011;25478;42.626;23.320;2023-07-16T12:35:10;10.43;;;9.00;;
39788;SDS011;25478;42.626;23.320;2023-07-16T12:37:36;12.95;;;9.10;;
39788;SDS011;25478;42.626;23.320;2023-07-16T12:40:01;12.85;;;9.43;;
39788;SDS011;25478;42.626;23.320;2023-07-16T12:42:27;12.68;;;9.88;;
39788;SDS011;25478;42.626;23.320;2023-07-16T12:44:52;11.20;;;9.25;;
39788;SDS011;25478;42.626;23.320;2023-07-16T12:47:18;13.13;;;9.73;;
39788;SDS011;25478;42.626;23.320;2023-07-16T12:49:43;11.70;;;9.07;;
39788;SDS011;25478;42.626;23.320;2023-07-16T12:52:09;13.05;;;8.73;;
39788;SDS011;25478;42.626;23.320;2023-07-16T12:54:35;13.63;;;9.10;;
39788;SDS011;25478;42.626;23.320;2023-07-16T12:57:00;13.00;;;8.98;;
39788;SDS011;25478;42.626;23.320;2023-07-16T12:59:26;11.65;;;8.57;;
39788;SDS011;25478;42.626;23.320;2023-07-16T13:01:51;12.38;;;8.60;;
39788;SDS011;25478;42.626;23.320;2023-07-16T13:04:17;12.25;;;9.13;;
39788;SDS011;25478;42.626;23.320;2023-07-16T13:06:42;14.88;;;8.60;;
39788;SDS011;25478;42.626;23.320;2023-07-16T13:09:10;12.43;;;9.25;;
39788;SDS011;25478;42.626;23.320;2023-07-16T13:11:36;14.20;;;10.15;;
39788;SDS011;25478;42.626;23.320;2023-07-16T13:14:02;11.25;;;9.35;;
39788;SDS011;25478;42.626;23.320;2023-07-16T13:16:27;12.45;;;8.52;;
39788;SDS011;25478;42.626;23.320;2023-07-16T13:18:53;13.93;;;8.73;;
39788;SDS011;25478;42.626;23.320;2023-07-16T13:21:18;13.50;;;9.45;;
39788;SDS011;25478;42.626;23.320;2023-07-16T13:23:44;10.30;;;8.40;;
39788;SDS011;25478;42.626;23.320;2023-07-16T13:26:09;10.27;;;7.95;;
39788;SDS011;25478;42.626;23.320;2023-07-16T13:28:35;11.43;;;8.40;;
39788;SDS011;25478;42.626;23.320;2023-07-16T13:31:00;10.48;;;9.10;;
39788;SDS011;25478;42.626;23.320;2023-07-16T13:33:26;11.40;;;8.70;;
39788;SDS011;25478;42.626;23.320;2023-07-16T13:35:51;12.68;;;8.82;;
39788;SDS011;25478;42.626;23.320;2023-07-16T13:38:17;12.75;;;8.52;;
39788;SDS011;25478;42.626;23.320;2023-07-16T13:40:42;11.77;;;9.13;;
39788;SDS011;25478;42.626;23.320;2023-07-16T13:43:08;12.52;;;9.27;;
39788;SDS011;25478;42.626;23.320;2023-07-16T13:45:33;11.50;;;8.73;;
39788;SDS011;25478;42.626;23.320;2023-07-16T13:47:59;12.20;;;8.98;;
39788;SDS011;25478;42.626;23.320;2023-07-16T13:50:26;12.88;;;9.27;;
39788;SDS011;25478;42.626;23.320;2023-07-16T13:52:51;13.50;;;9.15;;
39788;SDS011;25478;42.626;23.320;2023-07-16T13:55:17;12.63;;;9.43;;
39788;SDS011;25478;42.626;23.320;2023-07-16T13:57:43;13.95;;;10.00;;
39788;SDS011;25478;42.626;23.320;2023-07-16T14:00:08;11.00;;;8.73;;
39788;SDS011;25478;42.626;23.320;2023-07-16T14:02:37;11.75;;;9.52;;
39788;SDS011;25478;42.626;23.320;2023-07-16T14:05:02;14.45;;;9.82;;
39788;SDS011;25478;42.626;23.320;2023-07-16T14:07:29;13.95;;;9.82;;
39788;SDS011;25478;42.626;23.320;2023-07-16T14:09:55;14.65;;;10.02;;
39788;SDS011;25478;42.626;23.320;2023-07-16T14:12:21;10.85;;;8.90;;
39788;SDS011;25478;42.626;23.320;2023-07-16T14:14:46;13.45;;;9.18;;
39788;SDS011;25478;42.626;23.320;2023-07-16T14:17:12;12.25;;;9.88;;
39788;SDS011;25478;42.626;23.320;2023-07-16T14:19:37;11.82;;;9.25;;
39788;SDS011;25478;42.626;23.320;2023-07-16T14:22:03;13.80;;;9.32;;
39788;SDS011;25478;42.626;23.320;2023-07-16T14:24:29;12.85;;;10.02;;